createdAt,value
2018-08-09T00:00:06.867Z,83.60
2018-08-09T00:02:42.995Z,84.20
2018-08-09T00:05:21.104Z,83.90
2018-08-09T00:07:56.965Z,84.30
2018-08-09T00:10:32.610Z,85.30
2018-08-09T00:13:11.326Z,84.80
2018-08-09T00:15:48.173Z,85.60
2018-08-09T00:18:22.642Z,84.70
2018-08-09T00:21:01.842Z,85.20
2018-08-09T00:23:43.046Z,84.50
2018-08-09T00:26:22.479Z,83.60
2018-08-09T00:29:03.608Z,84.40
2018-08-09T00:34:48.729Z,84.90
2018-08-09T00:37:33.391Z,84.40
2018-08-09T00:43:24.939Z,84.10
2018-08-09T00:58:34.598Z,83.20
2018-08-09T01:01:12.104Z,82.70
2018-08-09T01:03:47.533Z,83.90
2018-08-09T01:06:26.703Z,84.60
2018-08-09T01:09:11.027Z,85.40
2018-08-09T01:11:48.943Z,85.40
2018-08-09T01:14:27.136Z,85.50
2018-08-09T01:16:59.915Z,85.90
2018-08-09T01:19:36.785Z,86.70
2018-08-09T01:22:13.263Z,85.40
2018-08-09T01:24:54.378Z,86.60
2018-08-09T01:27:28.750Z,86.60
2018-08-09T01:30:09.153Z,86.30
2018-08-09T01:32:43.238Z,86.60
2018-08-09T01:35:17.459Z,86.90
2018-08-09T01:37:56.911Z,87.60
2018-08-09T01:40:32.103Z,86.10
2018-08-09T01:43:20.993Z,86.90
2018-08-09T01:45:54.904Z,86.00
2018-08-09T01:48:28.596Z,85.90
2018-08-09T01:51:05.034Z,85.20
2018-08-09T01:53:43.119Z,85.40
2018-08-09T01:56:20.066Z,87.00
2018-08-09T01:58:58.405Z,85.90
2018-08-09T02:01:37.231Z,84.90
2018-08-09T02:04:10.001Z,84.20
2018-08-09T02:06:45.657Z,84.00
2018-08-09T02:09:23.574Z,86.10
2018-08-09T02:12:00.388Z,86.20
2018-08-09T02:14:33.996Z,86.40
2018-08-09T02:17:06.858Z,86.30
2018-08-09T02:19:44.797Z,87.00
2018-08-09T02:22:25.570Z,86.60
2018-08-09T02:25:03.109Z,86.30
2018-08-09T02:27:43.422Z,86.70
2018-08-09T02:30:16.705Z,86.80
2018-08-09T02:32:58.950Z,87.90
2018-08-09T02:35:34.703Z,86.80
2018-08-09T02:38:10.123Z,87.30
2018-08-09T02:40:43.617Z,88.00
2018-08-09T02:46:05.776Z,88.80
2018-08-09T02:48:45.635Z,90.00
2018-08-09T02:51:19.821Z,89.00
2018-08-09T02:53:53.151Z,87.90
2018-08-09T02:56:31.617Z,88.10
2018-08-09T02:59:08.540Z,88.60
2018-08-09T03:01:45.635Z,87.70
2018-08-09T03:04:17.271Z,87.80
2018-08-09T03:06:53.835Z,87.80
2018-08-09T03:09:28.398Z,87.10
2018-08-09T03:12:10.468Z,87.80
2018-08-09T03:14:53.301Z,87.60
2018-08-09T03:17:29.175Z,87.90
2018-08-09T03:20:08.477Z,88.40
2018-08-09T03:22:47.928Z,88.10
2018-08-09T03:28:05.580Z,87.30
2018-08-09T03:30:46.813Z,90.00
2018-08-09T03:33:24.541Z,90.00
2018-08-09T03:36:08.307Z,90.30
2018-08-09T03:38:44.459Z,90.60
2018-08-09T03:41:17.998Z,90.50
2018-08-09T03:43:53.706Z,90.80
2018-08-09T03:46:30.068Z,90.50
2018-08-09T03:49:05.870Z,90.30
2018-08-09T03:51:42.407Z,90.20
2018-08-09T03:54:21.541Z,89.90
2018-08-09T03:56:57.209Z,89.00
2018-08-09T03:59:32.174Z,89.20
2018-08-09T04:02:03.454Z,89.00
2018-08-09T04:04:45.587Z,88.00
2018-08-09T04:07:24.638Z,88.00
2018-08-09T04:10:03.769Z,88.20
2018-08-09T04:12:44.488Z,87.20
2018-08-09T04:15:27.924Z,88.00
2018-08-09T04:18:05.640Z,87.70
2018-08-09T04:20:42.915Z,88.20
2018-08-09T04:23:22.223Z,87.10
2018-08-09T04:25:57.964Z,86.60
2018-08-09T04:28:34.789Z,85.70
2018-08-09T04:31:15.195Z,85.70
2018-08-09T04:33:49.040Z,85.50
2018-08-09T04:39:01.988Z,87.90
2018-08-09T04:41:39.827Z,89.00
2018-08-09T04:44:14.944Z,87.50
2018-08-09T04:46:53.229Z,87.50
2018-08-09T04:49:32.569Z,86.60
2018-08-09T04:52:08.403Z,87.10
2018-08-09T04:54:41.093Z,86.80
2018-08-09T04:57:23.071Z,87.00
2018-08-09T05:02:40.048Z,84.70
2018-08-09T05:05:14.765Z,84.10
2018-08-09T05:07:51.984Z,84.50
2018-08-09T05:10:32.790Z,83.00
2018-08-09T05:13:12.012Z,82.00
2018-08-09T05:15:47.315Z,82.70
2018-08-09T05:21:06.419Z,80.60
2018-08-09T05:23:40.755Z,83.40
2018-08-09T05:26:15.753Z,83.20
2018-08-09T05:28:50.392Z,81.10
2018-08-09T05:31:25.017Z,80.50
2018-08-09T05:34:06.124Z,81.10
2018-08-09T05:42:12.252Z,79.70
2018-08-09T05:44:49.168Z,80.20
2018-08-09T05:47:29.077Z,80.20
2018-08-09T05:50:10.474Z,79.10
2018-08-09T05:52:46.792Z,79.30
2018-08-09T05:55:27.179Z,78.20
2018-08-09T05:58:02.658Z,77.60
2018-08-09T06:00:42.060Z,77.00
2018-08-09T06:03:18.514Z,76.30
2018-08-09T06:05:54.898Z,77.00
2018-08-09T06:08:32.958Z,79.70
2018-08-09T06:11:05.908Z,77.70
2018-08-09T06:13:45.521Z,77.60
2018-08-09T06:16:23.461Z,78.80
2018-08-09T06:19:03.378Z,76.70
2018-08-09T06:21:42.241Z,75.70
2018-08-09T06:27:08.680Z,78.00
2018-08-09T06:29:46.830Z,78.30
2018-08-09T06:32:25.231Z,79.20
2018-08-09T06:35:04.531Z,77.60
2018-08-09T06:37:45.045Z,80.90
2018-08-09T06:40:24.968Z,79.60
2018-08-09T06:43:06.263Z,80.20
2018-08-09T06:45:49.485Z,80.20
2018-08-09T06:48:26.160Z,79.20
2018-08-09T06:51:04.679Z,78.60
2018-08-09T06:53:42.910Z,78.80
2018-08-09T06:56:16.568Z,78.90
2018-08-09T06:58:53.836Z,78.50
2018-08-09T07:01:35.185Z,77.90
2018-08-09T07:04:20.368Z,78.20
2018-08-09T07:06:57.537Z,76.30
2018-08-09T07:09:41.742Z,76.00
2018-08-09T07:12:27.292Z,76.90
2018-08-09T07:15:11.134Z,74.00
2018-08-09T07:17:48.921Z,74.40
2018-08-09T07:20:28.255Z,76.60
2018-08-09T07:23:05.340Z,75.00
2018-08-09T07:25:40.172Z,74.30
2018-08-09T07:28:20.163Z,75.80
2018-08-09T07:30:59.374Z,75.20
2018-08-09T07:33:37.991Z,75.90
2018-08-09T07:36:14.756Z,77.00
2018-08-09T07:38:55.211Z,77.00
2018-08-09T07:41:31.051Z,77.20
2018-08-09T07:44:16.050Z,76.80
2018-08-09T07:46:52.940Z,75.70
2018-08-09T07:49:31.388Z,72.80
2018-08-09T07:52:09.339Z,74.30
2018-08-09T07:54:47.353Z,72.50
2018-08-09T07:57:30.107Z,72.30
2018-08-09T08:00:06.847Z,72.70
2018-08-09T08:02:51.815Z,74.80
2018-08-09T08:05:26.876Z,73.10
2018-08-09T08:08:09.853Z,72.70
2018-08-09T08:10:51.418Z,72.10
2018-08-09T08:13:28.036Z,71.40
2018-08-09T08:16:05.013Z,70.70
2018-08-09T08:18:40.455Z,71.10
2018-08-09T08:21:16.347Z,66.50
2018-08-09T08:23:49.712Z,66.30
2018-08-09T08:26:27.288Z,65.90
2018-08-09T08:29:05.197Z,64.20
2018-08-09T08:31:44.136Z,66.90
2018-08-09T08:34:20.070Z,65.20
2018-08-09T08:36:54.684Z,65.00
2018-08-09T08:39:34.383Z,63.20
2018-08-09T08:42:19.910Z,63.60
2018-08-09T08:47:49.494Z,65.50
2018-08-09T08:50:25.749Z,64.40
2018-08-09T08:55:43.848Z,61.10
2018-08-09T08:58:22.590Z,62.40
2018-08-09T09:00:58.720Z,64.30
2018-08-09T09:03:41.062Z,62.20
2018-08-09T09:06:23.269Z,59.70
2018-08-09T09:09:03.968Z,63.50
2018-08-09T09:11:43.102Z,61.80
2018-08-09T09:14:21.100Z,62.40
2018-08-09T09:16:58.272Z,62.00
2018-08-09T09:19:36.779Z,61.00
2018-08-09T09:22:16.643Z,61.60
2018-08-09T09:24:51.642Z,59.60
2018-08-09T09:27:36.556Z,59.00
2018-08-09T09:38:21.964Z,59.80
2018-08-09T09:41:04.145Z,56.90
2018-08-09T09:46:22.032Z,58.30
2018-08-09T09:49:01.391Z,57.70
2018-08-09T09:51:42.860Z,55.30
2018-08-09T09:54:17.615Z,55.60
2018-08-09T09:56:54.796Z,57.80
2018-08-09T09:59:31.391Z,56.20
2018-08-09T10:02:14.849Z,54.20
2018-08-09T10:04:53.842Z,58.10
2018-08-09T10:07:31.836Z,55.10
2018-08-09T10:10:09.068Z,53.90
2018-08-09T10:12:50.991Z,56.50
2018-08-09T10:15:23.591Z,53.60
2018-08-09T10:20:41.059Z,55.00
2018-08-09T10:23:18.439Z,53.30
2018-08-09T10:25:54.584Z,52.90
2018-08-09T10:28:36.932Z,55.40
2018-08-09T10:34:04.665Z,51.10
2018-08-09T10:36:44.693Z,51.70
2018-08-09T10:39:28.581Z,49.80
2018-08-09T10:42:08.022Z,49.40
2018-08-09T10:47:33.510Z,51.50
2018-08-09T10:50:12.690Z,53.40
2018-08-09T10:52:49.361Z,51.70
2018-08-09T10:55:21.744Z,50.00
2018-08-09T10:58:03.119Z,51.30
2018-08-09T11:00:45.924Z,51.90
2018-08-09T11:03:27.825Z,52.50
2018-08-09T11:06:05.513Z,52.70
2018-08-09T11:08:43.754Z,51.40
2018-08-09T11:11:21.591Z,51.80
2018-08-09T11:13:58.816Z,54.40
2018-08-09T11:16:34.256Z,51.70
2018-08-09T11:19:14.890Z,52.40
2018-08-09T11:21:54.626Z,50.40
2018-08-09T11:24:31.366Z,53.20
2018-08-09T11:27:06.406Z,50.60
2018-08-09T11:29:45.683Z,50.40
2018-08-09T11:32:23.898Z,50.50
2018-08-09T11:35:01.031Z,51.30
2018-08-09T11:37:41.533Z,50.80
2018-08-09T11:40:18.304Z,51.40
2018-08-09T11:42:58.571Z,52.10
2018-08-09T11:48:23.422Z,50.20
2018-08-09T11:51:10.968Z,50.60
2018-08-09T11:53:47.550Z,50.70
2018-08-09T11:56:23.036Z,50.50
2018-08-09T11:59:00.428Z,51.40
2018-08-09T12:01:37.620Z,50.40
2018-08-09T12:04:15.054Z,49.50
2018-08-09T12:06:51.024Z,49.40
2018-08-09T12:09:27.987Z,50.00
2018-08-09T12:12:06.028Z,50.30
2018-08-09T12:14:42.564Z,49.20
2018-08-09T12:17:27.228Z,48.30
2018-08-09T12:20:10.382Z,49.20
2018-08-09T12:22:45.103Z,49.40
2018-08-09T12:30:50.958Z,48.90
2018-08-09T12:33:31.967Z,47.80
2018-08-09T12:36:09.057Z,47.40
2018-08-09T12:38:51.857Z,47.00
2018-08-09T12:41:34.319Z,46.80
2018-08-09T12:44:14.542Z,46.10
2018-08-09T12:49:32.395Z,46.30
2018-08-09T12:52:12.101Z,47.10
2018-08-09T12:54:48.670Z,48.70
2018-08-09T12:57:21.861Z,46.50
2018-08-09T13:02:50.572Z,49.20
2018-08-09T13:05:28.184Z,46.80
2018-08-09T13:08:04.529Z,47.30
2018-08-09T13:10:40.968Z,45.60
2018-08-09T13:13:18.609Z,49.50
2018-08-09T13:15:59.926Z,48.50
2018-08-09T13:21:22.015Z,45.60
2018-08-09T13:23:59.605Z,46.00
2018-08-09T13:26:34.502Z,46.30
2018-08-09T13:29:13.224Z,46.10
2018-08-09T13:31:51.628Z,46.80
2018-08-09T13:34:29.693Z,46.60
2018-08-09T13:37:10.508Z,46.80
2018-08-09T13:39:45.867Z,46.80
2018-08-09T13:42:25.343Z,47.50
2018-08-09T13:45:04.176Z,47.60
2018-08-09T13:47:40.377Z,49.20
2018-08-09T13:50:19.564Z,45.60
2018-08-09T13:52:56.368Z,46.30
2018-08-09T13:55:30.013Z,46.80
2018-08-09T13:58:09.329Z,47.00
2018-08-09T14:00:46.105Z,47.80
2018-08-09T14:03:21.169Z,47.00
2018-08-09T14:05:55.968Z,47.80
2018-08-09T14:11:14.270Z,46.10
2018-08-09T14:13:53.081Z,48.00
2018-08-09T14:16:31.898Z,49.60
2018-08-09T14:19:08.602Z,49.30
2018-08-09T14:21:46.891Z,47.70
2018-08-09T14:24:29.071Z,50.10
2018-08-09T14:27:15.146Z,48.80
2018-08-09T14:29:57.983Z,47.30
2018-08-09T14:35:19.544Z,46.70
2018-08-09T14:37:54.676Z,47.30
2018-08-09T14:43:16.994Z,46.90
2018-08-09T14:45:54.765Z,46.00
2018-08-09T14:51:12.815Z,45.20
2018-08-09T14:53:53.058Z,46.30
2018-08-09T14:56:28.121Z,45.90
2018-08-09T14:59:07.062Z,45.90
2018-08-09T15:01:48.972Z,45.20
2018-08-09T15:04:28.974Z,45.00
2018-08-09T15:07:11.596Z,45.60
2018-08-09T15:09:49.499Z,46.10
2018-08-09T15:12:30.251Z,44.20
2018-08-09T15:15:12.880Z,45.20
2018-08-09T15:17:52.052Z,44.80
2018-08-09T15:20:31.241Z,43.60
2018-08-09T15:23:17.351Z,44.50
2018-08-09T15:25:55.258Z,44.20
2018-08-09T15:28:28.864Z,43.20
2018-08-09T15:31:06.363Z,44.20
2018-08-09T15:33:48.022Z,43.00
2018-08-09T15:36:28.384Z,44.40
2018-08-09T15:39:08.033Z,43.50
2018-08-09T15:41:54.340Z,44.80
2018-08-09T15:44:32.967Z,44.50
2018-08-09T15:47:09.595Z,44.80
2018-08-09T15:49:50.614Z,44.90
2018-08-09T15:52:27.774Z,43.90
2018-08-09T15:55:04.731Z,44.80
2018-08-09T15:57:39.982Z,43.30
2018-08-09T16:00:19.458Z,44.70
2018-08-09T16:03:01.040Z,44.60
2018-08-09T16:05:39.977Z,44.20
2018-08-09T16:08:19.728Z,44.20
2018-08-09T16:10:57.888Z,44.50
2018-08-09T16:13:40.213Z,43.40
2018-08-09T16:16:18.711Z,42.90
2018-08-09T16:18:58.696Z,43.80
2018-08-09T16:21:31.361Z,44.80
2018-08-09T16:24:09.522Z,43.70
2018-08-09T16:29:28.421Z,44.40
2018-08-09T16:32:04.804Z,44.00
2018-08-09T16:34:41.284Z,44.00
2018-08-09T16:37:15.266Z,44.00
2018-08-09T16:39:53.767Z,45.30
2018-08-09T16:42:29.858Z,44.30
2018-08-09T16:45:09.078Z,44.90
2018-08-09T16:50:34.826Z,45.10
2018-08-09T16:53:15.280Z,44.10
2018-08-09T16:55:56.552Z,45.50
2018-08-09T16:58:31.645Z,45.00
2018-08-09T17:01:16.078Z,44.50
2018-08-09T17:03:53.593Z,43.50
2018-08-09T17:06:36.670Z,42.50
2018-08-09T17:09:18.746Z,40.20
2018-08-09T17:12:02.553Z,40.40
2018-08-09T17:14:40.084Z,40.60
2018-08-09T17:17:14.135Z,39.10
2018-08-09T17:19:51.718Z,41.00
2018-08-09T17:22:26.245Z,43.20
2018-08-09T17:25:02.946Z,43.60
2018-08-09T17:27:37.468Z,44.60
2018-08-09T17:30:15.125Z,46.70
2018-08-09T17:32:50.600Z,45.90
2018-08-09T17:35:28.055Z,46.70
2018-08-09T17:38:08.367Z,47.20
2018-08-09T17:40:43.305Z,47.20
2018-08-09T17:43:23.807Z,46.90
2018-08-09T17:46:00.660Z,47.60
2018-08-09T17:48:38.972Z,47.60
2018-08-09T17:51:13.301Z,47.40
2018-08-09T17:53:49.863Z,48.40
2018-08-09T17:56:24.178Z,48.90
2018-08-09T17:58:58.709Z,48.90
2018-08-09T18:01:39.271Z,48.60
2018-08-09T18:04:16.983Z,49.40
2018-08-09T18:06:59.104Z,49.90
2018-08-09T18:09:36.121Z,49.50
2018-08-09T18:12:16.442Z,49.60
2018-08-09T18:14:57.192Z,49.90
2018-08-09T18:17:37.134Z,50.10
2018-08-09T18:20:20.044Z,51.20
2018-08-09T18:23:01.874Z,50.90
2018-08-09T18:25:39.016Z,51.10
2018-08-09T18:28:21.445Z,51.20
2018-08-09T18:30:58.826Z,51.40
2018-08-09T18:33:40.830Z,52.40
2018-08-09T18:36:19.163Z,53.20
2018-08-09T18:38:56.746Z,53.90
2018-08-09T18:44:19.722Z,54.90
2018-08-09T18:46:52.080Z,55.70
2018-08-09T18:49:32.540Z,55.60
2018-08-09T18:52:09.438Z,56.10
2018-08-09T18:57:28.511Z,56.70
2018-08-09T19:02:47.241Z,57.90
2018-08-09T19:05:26.629Z,58.00
2018-08-09T19:08:06.999Z,58.30
2018-08-09T19:10:46.655Z,59.00
2018-08-09T19:13:28.770Z,59.20
2018-08-09T19:16:02.356Z,59.50
2018-08-09T19:18:44.054Z,60.20
2018-08-09T19:21:23.189Z,61.10
2018-08-09T19:24:09.699Z,60.30
2018-08-09T19:26:45.210Z,62.40
2018-08-09T19:29:23.103Z,62.50
2018-08-09T19:32:02.750Z,62.80
2018-08-09T19:34:41.324Z,63.40
2018-08-09T19:37:18.782Z,64.10
2018-08-09T19:39:55.660Z,65.10
2018-08-09T19:45:17.999Z,66.80
2018-08-09T19:47:59.726Z,66.70
2018-08-09T19:50:41.636Z,68.00
2018-08-09T19:56:10.821Z,67.80
2018-08-09T19:58:56.751Z,68.40
2018-08-09T20:04:13.650Z,68.10
2018-08-09T20:06:53.319Z,68.60
2018-08-09T20:09:32.998Z,68.90
2018-08-09T20:12:12.460Z,68.40
2018-08-09T20:20:11.741Z,69.20
2018-08-09T20:22:51.861Z,70.30
2018-08-09T20:25:33.582Z,70.10
2018-08-09T20:28:08.597Z,70.90
2018-08-09T20:30:47.740Z,70.90
2018-08-09T20:33:22.698Z,70.80
2018-08-09T20:38:43.174Z,70.70
2018-08-09T20:41:25.763Z,70.30
2018-08-09T20:43:58.973Z,71.00
2018-08-09T20:46:36.450Z,71.60
2018-08-09T20:49:15.189Z,71.80
2018-08-09T20:51:54.561Z,72.40
2018-08-09T20:54:34.283Z,72.00
2018-08-09T20:57:07.562Z,71.80
2018-08-09T20:59:41.197Z,71.80
2018-08-09T21:02:15.388Z,72.50
2018-08-09T21:04:53.533Z,72.60
2018-08-09T21:07:31.101Z,74.00
2018-08-09T21:10:09.303Z,73.10
2018-08-09T21:12:46.903Z,72.90
2018-08-09T21:15:30.916Z,73.10
2018-08-09T21:18:09.654Z,73.20
2018-08-09T21:20:53.025Z,74.00
2018-08-09T21:23:27.666Z,75.00
2018-08-09T21:26:06.380Z,74.10
2018-08-09T21:28:44.497Z,75.10
2018-08-09T21:31:17.856Z,76.70
2018-08-09T21:33:52.046Z,75.50
2018-08-09T21:36:27.562Z,75.90
2018-08-09T21:39:09.203Z,75.80
2018-08-09T21:41:47.558Z,75.40
2018-08-09T21:44:25.838Z,75.60
2018-08-09T21:47:03.711Z,76.30
2018-08-09T21:49:41.184Z,76.80
2018-08-09T21:52:26.352Z,76.40
2018-08-09T21:55:03.598Z,76.60
2018-08-09T21:57:44.178Z,76.30
2018-08-09T22:03:20.990Z,77.00
2018-08-09T22:08:46.712Z,78.40
2018-08-09T22:11:28.906Z,77.80
2018-08-09T22:16:17.918Z,77.20
2018-08-09T22:18:56.900Z,77.40
2018-08-09T22:24:17.000Z,82.50
2018-08-09T22:26:56.994Z,82.10
2018-08-09T22:29:35.562Z,80.50
2018-08-09T22:32:20.375Z,80.60
2018-08-09T22:34:57.937Z,80.40
2018-08-09T22:37:34.829Z,81.10
2018-08-09T22:42:57.840Z,80.20
2018-08-09T22:45:34.417Z,82.20
2018-08-09T22:48:14.182Z,80.50
2018-08-09T22:50:55.126Z,80.00
2018-08-09T22:53:38.561Z,82.60
2018-08-09T22:56:16.007Z,81.90
2018-08-09T22:58:54.035Z,80.40
2018-08-09T23:01:32.289Z,82.10
2018-08-09T23:04:21.200Z,81.70
2018-08-09T23:07:03.976Z,81.40
2018-08-09T23:09:41.564Z,80.70
2018-08-09T23:12:21.837Z,80.90
2018-08-09T23:14:56.746Z,82.80
2018-08-09T23:17:31.941Z,84.10
2018-08-09T23:20:06.588Z,84.00
2018-08-09T23:22:41.960Z,83.30
2018-08-09T23:25:21.605Z,83.50
2018-08-09T23:28:00.896Z,82.50
2018-08-09T23:30:39.801Z,83.00
2018-08-09T23:33:15.129Z,83.70
2018-08-09T23:35:54.782Z,83.30
2018-08-09T23:38:28.749Z,82.90
2018-08-09T23:43:46.100Z,83.30
2018-08-09T23:46:24.175Z,84.40
2018-08-09T23:49:02.733Z,84.30
2018-08-09T23:51:38.793Z,84.10
2018-08-09T23:54:16.533Z,83.60
2018-08-09T23:56:59.058Z,84.50
2018-08-09T23:59:35.158Z,83.70
